Bookmark and Share
Track history (hours):
 

Cheikh El Mokrani

Last reported at 2014-Apr-22 12:28 UTC. Time now 2014-Apr-24 01:49 UTC.
Position N 38°20' E 006°39'.

Length 220 m; draft 8 m.

Type: Ship (hazmat cat D). MMSI: 309979000.

NotesDate/timePositionNaut miles runAvg speedWind from/ knotsBaromVisibWave heightAir tempDewpointWater temp
2014-Apr-22 12:28N 38°20' E 006°39'1717.8
2014-Apr-22 11:32N 38°36' E 006°34'16016.1
2014-Apr-22 01:33N 41°11' E 005°42'1716.0
2014-Apr-22 00:28N 41°28' E 005°36'1516.1
2014-Apr-21 23:32N 41°43' E 005°32'1615.9
2014-Apr-21 22:33N 41°58' E 005°27'1716.5
2014-Apr-21 21:33N 42°14' E 005°21'1716.4
2014-Apr-21 20:33N 42°30' E 005°15'1716.3
2014-Apr-21 19:32N 42°46' E 005°10'1715.5
2014-Apr-21 18:27N 43°02' E 005°04'1415.6
2014-Apr-21 17:33N 43°16' E 004°60'9 9.1
2014-Apr-21 16:33N 43°24' E 004°54'4 3.6
2014-Apr-21 15:33N 43°27' E 004°51'0 0.0
2014-Apr-21 14:33N 43°27' E 004°51'0 0.0
2014-Apr-21 13:33N 43°27' E 004°51'0 0.0
2014-Apr-21 12:33N 43°27' E 004°51'0 0.0
2014-Apr-21 11:33N 43°27' E 004°51'0 0.0
2014-Apr-21 10:33N 43°27' E 004°51'0 0.0
2014-Apr-21 09:33N 43°27' E 004°51'0 0.0
2014-Apr-21 08:33N 43°27' E 004°51'0 0.0
2014-Apr-21 07:33N 43°27' E 004°51'0 0.0
2014-Apr-21 06:33N 43°27' E 004°51'0 0.0
2014-Apr-21 05:33N 43°27' E 004°51'0 0.0
2014-Apr-21 04:30N 43°27' E 004°51'0 0.0
2014-Apr-21 03:21N 43°27' E 004°51'0 0.0
2014-Apr-21 02:33N 43°27' E 004°51'0 0.0
2014-Apr-21 01:33N 43°27' E 004°51'0 0.0
2014-Apr-21 00:33N 43°27' E 004°51'0 0.0
2014-Apr-20 23:33N 43°27' E 004°51'0 0.0
2014-Apr-20 22:33N 43°27' E 004°51'0 0.0
2014-Apr-20 21:33N 43°27' E 004°51'0 0.0
2014-Apr-20 20:33N 43°27' E 004°51'0 0.0
2014-Apr-20 19:33N 43°27' E 004°51'0 0.0
2014-Apr-20 18:30N 43°27' E 004°51'0 0.0
2014-Apr-20 17:33N 43°27' E 004°51'0 0.0
2014-Apr-20 16:33N 43°27' E 004°51'0 0.0
2014-Apr-20 15:33N 43°27' E 004°51'0 0.0
2014-Apr-20 14:33N 43°27' E 004°51'0 0.0
2014-Apr-20 13:33N 43°27' E 004°51'6 5.9
2014-Apr-20 12:33N 43°23' E 004°57'8 8.0
2014-Apr-20 11:33N 43°15' E 005°01'0 0.5
2014-Apr-20 10:33N 43°15' E 005°02'8 7.7
2014-Apr-20 09:33N 43°08' E 005°04'1211.6
2014-Apr-20 08:33N 42°57' E 005°08'1514.9
2014-Apr-20 07:33N 42°42' E 005°13'1514.8
2014-Apr-20 06:33N 42°28' E 005°17'1514.3
2014-Apr-20 05:31N 42°13' E 005°22'1614.0
2014-Apr-20 04:24N 41°58' E 005°28'3014.7
2014-Apr-20 02:21N 41°29' E 005°38'1114.2
2014-Apr-20 01:33N 41°18' E 005°41'2014.1
2014-Apr-20 00:08N 40°59' E 005°49'  
2014-Apr-16 20:09N 37°06' E 004°59'3011.2
2014-Apr-16 17:27N 37°05' E 004°21'1111.9
2014-Apr-16 16:33N 37°12' E 004°12'1211.3
2014-Apr-16 15:31N 37°18' E 003°59'24 4.0
2014-Apr-16 09:33N 37°12' E 003°30'1212.0
2014-Apr-16 08:33N 37°00' E 003°27'3712.5
2014-Apr-16 05:33N 36°55' E 002°41'1412.6
2014-Apr-16 04:25N 36°52' E 002°23'1613.3
2014-Apr-16 03:15N 36°49' E 002°04'912.7
2014-Apr-16 02:33N 36°48' E 001°53'1312.6
2014-Apr-16 01:33N 36°45' E 001°38'5513.2
2014-Apr-15 21:23N 36°29' E 000°33'51 1.5
2014-Apr-14 11:32N 35°54' W 000°13'119 9.1
2014-Apr-13 22:27N 37°47' E 000°32'1414.0
2014-Apr-13 21:27N 38°00' E 000°37'1814.4
2014-Apr-13 20:11N 38°18' E 000°44'7314.5
2014-Apr-13 15:09N 39°24' E 001°23'914.8
2014-Apr-13 14:32N 39°32' E 001°29'1514.9
2014-Apr-13 13:33N 39°44' E 001°41'1515.1
2014-Apr-13 12:33N 39°56' E 001°52'1515.3
2014-Apr-13 11:33N 40°08' E 002°04'1515.2
2014-Apr-13 10:33N 40°20' E 002°15'1515.3
2014-Apr-13 09:33N 40°33' E 002°27'1515.3
2014-Apr-13 08:33N 40°45' E 002°39'1616.1
2014-Apr-13 07:33N 40°58' E 002°51'1717.1
2014-Apr-13 06:33N 41°12' E 003°04'1717.5
2014-Apr-13 05:33N 41°26' E 003°18'5317.6
2014-Apr-13 02:33N 42°09' E 003°60'1817.9
2014-Apr-13 01:33N 42°23' E 004°14'1817.7
2014-Apr-13 00:33N 42°38' E 004°28'1717.2
2014-Apr-12 23:33N 42°52' E 004°41'1616.0
2014-Apr-12 22:31N 43°05' E 004°54'1314.0
2014-Apr-12 21:34N 43°18' E 004°59'8 7.4
2014-Apr-12 20:32N 43°25' E 004°54'0 0.0
2014-Apr-12 19:32N 43°25' E 004°54'0 0.0
2014-Apr-12 18:32N 43°25' E 004°54'0 0.0
2014-Apr-12 17:30N 43°25' E 004°54'0 0.0
2014-Apr-12 16:32N 43°25' E 004°54'0 0.0
2014-Apr-12 15:32N 43°25' E 004°54'0 0.0
2014-Apr-12 14:32N 43°25' E 004°54'0 0.0
2014-Apr-12 13:32N 43°25' E 004°54'0 0.0
2014-Apr-12 12:29N 43°25' E 004°54'  

Dump ship's entire track history

sailing weather and tide predictions

Cheikh El Mokrani — C6WD5 — position and weather